Time,TemperatureF,DewpointF,PressureIn,WindDirection,WindDirectionDegrees,WindSpeedMPH,WindSpeedGustMPH,Humidity,HourlyPrecipIn,Conditions,Clouds,dailyrainin,SoftwareType,DateUTC
2013-02-28 00:02:00,42.0,31.0,29.86,WSW,243,0.0,4.0,65,0.00,,,0.03,,2013-02-28 05:02:00,
2013-02-28 00:11:00,42.0,31.0,29.86,WSW,243,0.0,4.0,65,0.00,,,0.03,,2013-02-28 05:11:00,
2013-02-28 00:22:00,42.0,31.0,29.85,WSW,252,1.0,4.0,65,0.00,,,0.03,,2013-02-28 05:22:00,
2013-02-28 00:32:00,42.0,31.0,29.86,West,263,0.0,3.0,66,0.00,,,0.03,,2013-02-28 05:32:00,
2013-02-28 00:42:00,42.0,31.0,29.86,West,263,0.0,3.0,66,0.00,,,0.03,,2013-02-28 05:42:00,
2013-02-28 00:52:00,42.0,30.0,29.86,WNW,303,6.0,10.0,63,0.00,,,0.03,,2013-02-28 05:52:00,
2013-02-28 01:01:00,41.0,29.0,29.87,NW,313,6.0,12.0,61,0.00,,,0.03,,2013-02-28 06:01:00,
2013-02-28 01:11:00,41.0,29.0,29.87,NW,313,6.0,12.0,61,0.00,,,0.03,,2013-02-28 06:11:00,
2013-02-28 01:22:00,41.0,29.0,29.87,NW,318,2.0,5.0,62,0.00,,,0.03,,2013-02-28 06:22:00,
2013-02-28 01:32:00,40.0,27.0,29.87,NW,309,4.0,11.0,60,0.00,,,0.03,,2013-02-28 06:32:00,
2013-02-28 01:42:00,40.0,27.0,29.87,NW,309,4.0,11.0,60,0.00,,,0.03,,2013-02-28 06:42:00,
2013-02-28 01:52:00,40.0,28.0,29.87,West,275,0.0,7.0,61,0.00,,,0.03,,2013-02-28 06:52:00,
2013-02-28 02:01:00,39.0,27.0,29.87,West,277,1.0,4.0,61,0.00,,,0.03,,2013-02-28 07:01:00,
2013-02-28 02:11:00,39.0,27.0,29.87,West,277,1.0,4.0,61,0.00,,,0.03,,2013-02-28 07:11:00,
2013-02-28 02:21:00,39.0,27.0,29.87,West,264,0.0,4.0,62,0.00,,,0.00,,2013-02-28 07:21:00,
2013-02-28 02:32:00,39.0,27.0,29.86,West,276,0.0,4.0,62,0.00,,,0.00,,2013-02-28 07:32:00,
2013-02-28 02:42:00,39.0,27.0,29.86,West,276,0.0,4.0,62,0.00,,,0.00,,2013-02-28 07:42:00,
2013-02-28 02:52:00,39.0,27.0,29.86,West,268,0.0,2.0,63,0.00,,,0.00,,2013-02-28 07:52:00,
2013-02-28 03:01:00,39.0,27.0,29.86,WSW,244,1.0,3.0,63,0.00,,,0.00,,2013-02-28 08:01:00,
2013-02-28 03:11:00,39.0,27.0,29.86,WSW,244,1.0,3.0,63,0.00,,,0.00,,2013-02-28 08:11:00,
2013-02-28 03:22:00,39.0,27.0,29.85,WNW,298,2.0,7.0,62,0.00,,,0.00,,2013-02-28 08:22:00,
2013-02-28 03:32:00,39.0,28.0,29.85,WSW,245,0.0,2.0,64,0.00,,,0.00,,2013-02-28 08:32:00,
2013-02-28 03:42:00,39.0,28.0,29.85,WSW,245,0.0,2.0,64,0.00,,,0.00,,2013-02-28 08:42:00,
2013-02-28 03:53:00,39.0,28.0,29.85,WSW,256,3.0,6.0,64,0.00,,,0.00,,2013-02-28 08:53:00,
2013-02-28 04:03:00,39.0,28.0,29.84,West,273,0.0,5.0,65,0.00,,,0.00,,2013-02-28 09:03:00,
2013-02-28 04:12:00,39.0,28.0,29.84,West,273,0.0,5.0,65,0.00,,,0.00,,2013-02-28 09:12:00,
2013-02-28 04:22:00,39.0,29.0,29.84,WSW,244,0.0,3.0,66,0.00,,,0.00,,2013-02-28 09:22:00,
2013-02-28 04:32:00,39.0,29.0,29.84,SW,230,0.0,1.0,67,0.00,,,0.00,,2013-02-28 09:32:00,
2013-02-28 04:42:00,39.0,29.0,29.84,SW,230,0.0,1.0,67,0.00,,,0.00,,2013-02-28 09:42:00,
2013-02-28 04:52:00,39.0,29.0,29.84,SW,230,0.0,0.0,68,0.00,,,0.00,,2013-02-28 09:52:00,
2013-02-28 05:02:00,39.0,29.0,29.84,SW,230,0.0,1.0,68,0.00,,,0.00,,2013-02-28 10:02:00,
2013-02-28 05:11:00,39.0,30.0,29.84,WNW,283,0.0,1.0,69,0.00,,,0.00,,2013-02-28 10:11:00,
2013-02-28 05:22:00,39.0,30.0,29.84,WNW,283,0.0,1.0,69,0.00,,,0.00,,2013-02-28 10:22:00,
2013-02-28 05:32:00,39.0,29.0,29.84,WSW,240,0.0,3.0,68,0.00,,,0.00,,2013-02-28 10:32:00,
2013-02-28 05:42:00,39.0,29.0,29.84,WSW,240,0.0,3.0,68,0.00,,,0.00,,2013-02-28 10:42:00,
2013-02-28 05:52:00,39.0,29.0,29.84,WSW,254,1.0,10.0,68,0.00,,,0.00,,2013-02-28 10:52:00,
2013-02-28 06:02:00,39.0,29.0,29.84,West,278,1.0,6.0,67,0.00,,,0.00,,2013-02-28 11:02:00,
2013-02-28 06:11:00,39.0,29.0,29.84,West,278,1.0,6.0,67,0.00,,,0.00,,2013-02-28 11:11:00,
2013-02-28 06:22:00,39.0,29.0,29.84,West,271,2.0,7.0,68,0.00,,,0.00,,2013-02-28 11:22:00,
2013-02-28 06:32:00,39.0,29.0,29.84,WSW,248,1.0,5.0,68,0.00,,,0.00,,2013-02-28 11:32:00,
2013-02-28 06:42:00,39.0,29.0,29.84,WSW,248,1.0,5.0,68,0.00,,,0.00,,2013-02-28 11:42:00,
2013-02-28 06:52:00,39.0,29.0,29.84,West,259,0.0,6.0,68,0.00,,,0.00,,2013-02-28 11:52:00,
2013-02-28 07:02:00,39.0,29.0,29.85,West,260,1.0,4.0,68,0.00,,,0.00,,2013-02-28 12:02:00,
2013-02-28 07:11:00,39.0,29.0,29.85,West,260,1.0,4.0,68,0.00,,,0.00,,2013-02-28 12:11:00,
2013-02-28 07:22:00,39.0,30.0,29.85,West,277,1.0,5.0,69,0.00,,,0.00,,2013-02-28 12:22:00,
2013-02-28 07:32:00,39.0,30.0,29.85,WNW,285,2.0,5.0,69,0.00,,,0.00,,2013-02-28 12:32:00,
2013-02-28 07:42:00,39.0,30.0,29.85,WNW,285,2.0,5.0,69,0.00,,,0.00,,2013-02-28 12:42:00,
2013-02-28 07:52:00,39.0,30.0,29.85,West,267,0.0,2.0,69,0.00,,,0.00,,2013-02-28 12:52:00,
2013-02-28 08:02:00,39.0,30.0,29.86,West,267,1.0,2.0,69,0.00,,,0.00,,2013-02-28 13:02:00,
2013-02-28 08:11:00,39.0,30.0,29.87,West,267,0.0,1.0,71,0.00,,,0.00,,2013-02-28 13:11:00,
2013-02-28 08:22:00,39.0,30.0,29.87,West,267,0.0,1.0,71,0.00,,,0.00,,2013-02-28 13:22:00,
2013-02-28 08:32:00,39.0,31.0,29.88,SW,219,1.0,4.0,73,0.00,,,0.00,,2013-02-28 13:32:00,
2013-02-28 08:42:00,39.0,31.0,29.88,SW,219,1.0,4.0,73,0.00,,,0.00,,2013-02-28 13:42:00,
2013-02-28 08:52:00,39.0,31.0,29.88,NW,304,2.0,7.0,72,0.00,,,0.00,,2013-02-28 13:52:00,
2013-02-28 09:01:00,39.0,29.0,29.89,NW,310,3.0,5.0,68,0.00,,,0.00,,2013-02-28 14:01:00,
2013-02-28 09:11:00,39.0,28.0,29.90,WNW,300,5.0,11.0,65,0.00,,,0.00,,2013-02-28 14:11:00,
2013-02-28 09:22:00,39.0,28.0,29.90,WNW,300,5.0,11.0,65,0.00,,,0.00,,2013-02-28 14:22:00,
2013-02-28 09:32:00,39.0,28.0,29.90,WNW,299,3.0,8.0,65,0.00,,,0.00,,2013-02-28 14:32:00,
2013-02-28 09:42:00,39.0,29.0,29.90,NW,307,3.0,6.0,66,0.00,,,0.00,,2013-02-28 14:42:00,
2013-02-28 09:52:00,39.0,29.0,29.90,NW,307,3.0,6.0,66,0.00,,,0.00,,2013-02-28 14:52:00,
2013-02-28 10:02:00,39.0,29.0,29.91,NW,309,2.0,8.0,67,0.00,,,0.00,,2013-02-28 15:02:00,
2013-02-28 10:11:00,39.0,30.0,29.91,NW,307,4.0,8.0,69,0.00,,,0.00,,2013-02-28 15:11:00,
2013-02-28 10:22:00,39.0,30.0,29.91,NW,307,4.0,8.0,69,0.00,,,0.00,,2013-02-28 15:22:00,
2013-02-28 10:32:00,38.0,30.0,29.92,NW,306,2.0,9.0,74,0.00,,,0.00,,2013-02-28 15:32:00,
2013-02-28 10:42:00,38.0,30.0,29.92,NW,306,2.0,9.0,74,0.00,,,0.00,,2013-02-28 15:42:00,
2013-02-28 10:52:00,37.0,31.0,29.92,NW,311,1.0,6.0,78,0.00,,,0.00,,2013-02-28 15:52:00,
2013-02-28 11:02:00,37.0,31.0,29.92,NW,315,2.0,6.0,79,0.00,,,0.00,,2013-02-28 16:02:00,
2013-02-28 11:12:00,36.0,30.0,29.93,NNW,333,0.0,4.0,79,0.00,,,0.00,,2013-02-28 16:12:00,
2013-02-28 11:22:00,36.0,30.0,29.93,NNW,333,0.0,4.0,79,0.00,,,0.00,,2013-02-28 16:22:00,
2013-02-28 11:32:00,36.0,29.0,29.93,NW,317,1.0,4.0,77,0.00,,,0.00,,2013-02-28 16:32:00,
2013-02-28 11:42:00,36.0,29.0,29.93,NW,317,1.0,4.0,77,0.00,,,0.00,,2013-02-28 16:42:00,
2013-02-28 11:52:00,37.0,30.0,29.93,NW,326,3.0,8.0,77,0.00,,,0.00,,2013-02-28 16:52:00,
2013-02-28 12:02:00,37.0,29.0,29.93,WNW,303,1.0,6.0,73,0.00,,,0.00,,2013-02-28 17:02:00,
2013-02-28 12:12:00,38.0,29.0,29.93,WNW,298,5.0,11.0,71,0.00,,,0.00,,2013-02-28 17:12:00,
2013-02-28 12:22:00,38.0,29.0,29.93,WNW,298,5.0,11.0,71,0.00,,,0.00,,2013-02-28 17:22:00,
2013-02-28 12:32:00,38.0,29.0,29.93,WNW,296,4.0,8.0,69,0.00,,,0.00,,2013-02-28 17:32:00,
2013-02-28 12:42:00,38.0,29.0,29.93,WNW,296,4.0,8.0,69,0.00,,,0.00,,2013-02-28 17:42:00,
2013-02-28 12:53:00,38.0,29.0,29.94,NW,304,2.0,9.0,70,0.00,,,0.00,,2013-02-28 17:53:00,
2013-02-28 13:02:00,38.0,28.0,29.94,NNW,328,4.0,10.0,68,0.00,,,0.00,,2013-02-28 18:02:00,
2013-02-28 13:12:00,38.0,27.0,29.94,NNW,330,4.0,12.0,65,0.00,,,0.00,,2013-02-28 18:12:00,
2013-02-28 13:22:00,38.0,27.0,29.94,NNW,330,4.0,12.0,65,0.00,,,0.00,,2013-02-28 18:22:00,
2013-02-28 13:32:00,38.0,28.0,29.94,NW,313,3.0,10.0,67,0.00,,,0.00,,2013-02-28 18:32:00,
2013-02-28 13:42:00,38.0,27.0,29.93,WNW,299,2.0,5.0,63,0.00,,,0.00,,2013-02-28 18:42:00,
2013-02-28 13:52:00,38.0,27.0,29.93,WNW,299,2.0,5.0,63,0.00,,,0.00,,2013-02-28 18:52:00,
2013-02-28 14:02:00,38.0,26.0,29.93,WNW,302,3.0,6.0,62,0.00,,,0.00,,2013-02-28 19:02:00,
2013-02-28 14:11:00,38.0,26.0,29.93,WNW,302,3.0,6.0,62,0.00,,,0.00,,2013-02-28 19:11:00,
2013-02-28 14:22:00,38.0,26.0,29.94,WNW,303,3.0,6.0,62,0.00,,,0.00,,2013-02-28 19:22:00,
2013-02-28 14:32:00,38.0,26.0,29.93,WNW,302,3.0,5.0,62,0.00,,,0.00,,2013-02-28 19:32:00,
2013-02-28 14:42:00,38.0,26.0,29.93,WNW,302,3.0,5.0,62,0.00,,,0.00,,2013-02-28 19:42:00,
2013-02-28 14:52:00,38.0,27.0,29.94,NW,306,5.0,7.0,63,0.00,,,0.00,,2013-02-28 19:52:00,
2013-02-28 15:01:00,38.0,27.0,29.95,NW,309,2.0,7.0,63,0.00,,,0.00,,2013-02-28 20:01:00,
2013-02-28 15:12:00,38.0,27.0,29.95,NW,309,2.0,7.0,63,0.00,,,0.00,,2013-02-28 20:12:00,
2013-02-28 15:22:00,39.0,27.0,29.95,NW,321,3.0,7.0,63,0.00,,,0.00,,2013-02-28 20:22:00,
2013-02-28 15:32:00,39.0,27.0,29.95,West,273,2.0,6.0,62,0.00,,,0.00,,2013-02-28 20:32:00,
2013-02-28 15:42:00,39.0,27.0,29.95,West,273,2.0,6.0,62,0.00,,,0.00,,2013-02-28 20:42:00,
2013-02-28 15:52:00,39.0,27.0,29.95,WNW,303,2.0,5.0,62,0.00,,,0.00,,2013-02-28 20:52:00,
2013-02-28 16:02:00,39.0,27.0,29.96,West,263,2.0,9.0,62,0.00,,,0.00,,2013-02-28 21:02:00,
2013-02-28 16:11:00,39.0,27.0,29.96,West,263,2.0,9.0,62,0.00,,,0.00,,2013-02-28 21:11:00,
2013-02-28 16:22:00,39.0,27.0,29.96,WSW,240,1.0,8.0,63,0.00,,,0.00,,2013-02-28 21:22:00,
2013-02-28 16:32:00,39.0,27.0,29.97,West,265,1.0,7.0,61,0.00,,,0.00,,2013-02-28 21:32:00,
2013-02-28 16:42:00,39.0,27.0,29.97,West,265,1.0,7.0,61,0.00,,,0.00,,2013-02-28 21:42:00,
2013-02-28 16:52:00,39.0,26.0,29.97,West,275,1.0,6.0,60,0.00,,,0.00,,2013-02-28 21:52:00,
2013-02-28 17:01:00,39.0,27.0,29.97,WSW,248,3.0,7.0,61,0.00,,,0.00,,2013-02-28 22:01:00,
2013-02-28 17:11:00,39.0,27.0,29.97,West,267,1.0,5.0,62,0.00,,,0.00,,2013-02-28 22:11:00,
2013-02-28 17:22:00,39.0,27.0,29.97,West,267,1.0,5.0,62,0.00,,,0.00,,2013-02-28 22:22:00,
2013-02-28 17:32:00,39.0,27.0,29.97,NW,306,3.0,6.0,62,0.00,,,0.00,,2013-02-28 22:32:00,
2013-02-28 17:42:00,39.0,27.0,29.97,NW,306,3.0,6.0,62,0.00,,,0.00,,2013-02-28 22:42:00,
2013-02-28 17:52:00,38.0,27.0,30.01,West,277,2.0,7.0,63,0.00,,,0.00,,2013-02-28 22:52:00,
2013-02-28 18:01:00,38.0,27.0,30.01,WNW,290,2.0,4.0,63,0.00,,,0.00,,2013-02-28 23:01:00,
2013-02-28 18:11:00,38.0,26.0,30.01,West,271,3.0,5.0,62,0.00,,,0.00,,2013-02-28 23:11:00,
2013-02-28 18:22:00,38.0,26.0,30.01,West,271,3.0,5.0,62,0.00,,,0.00,,2013-02-28 23:22:00,
2013-02-28 18:32:00,38.0,27.0,30.01,WNW,300,1.0,5.0,63,0.00,,,0.00,,2013-02-28 23:32:00,
2013-02-28 18:42:00,38.0,27.0,30.01,WNW,300,1.0,5.0,63,0.00,,,0.00,,2013-02-28 23:42:00,
2013-02-28 18:53:00,38.0,26.0,30.01,WNW,303,2.0,6.0,61,0.00,,,0.00,,2013-02-28 23:53:00,
2013-02-28 19:02:00,38.0,26.0,30.01,NW,315,3.0,4.0,62,0.00,,,0.00,,2013-03-01 00:02:00,
2013-02-28 19:11:00,38.0,26.0,30.01,NW,315,3.0,4.0,62,0.00,,,0.00,,2013-03-01 00:11:00,
2013-02-28 19:22:00,38.0,26.0,30.02,West,262,2.0,5.0,61,0.00,,,0.00,,2013-03-01 00:22:00,
2013-02-28 19:32:00,37.0,25.0,30.01,WNW,295,1.0,4.0,62,0.00,,,0.00,,2013-03-01 00:32:00,
2013-02-28 19:42:00,37.0,25.0,30.01,WNW,295,1.0,4.0,62,0.00,,,0.00,,2013-03-01 00:42:00,
2013-02-28 19:52:00,37.0,25.0,30.02,WNW,300,1.0,6.0,62,0.00,,,0.00,,2013-03-01 00:52:00,
2013-02-28 20:01:00,37.0,26.0,30.02,NW,311,2.0,5.0,63,0.00,,,0.00,,2013-03-01 01:01:00,
2013-02-28 20:11:00,37.0,25.0,30.03,WNW,298,2.0,6.0,61,0.00,,,0.00,,2013-03-01 01:11:00,
2013-02-28 20:21:00,37.0,25.0,30.03,WNW,298,2.0,6.0,61,0.00,,,0.00,,2013-03-01 01:21:00,
2013-02-28 20:32:00,37.0,26.0,30.03,WNW,292,0.0,4.0,63,0.00,,,0.00,,2013-03-01 01:32:00,
2013-02-28 20:42:00,37.0,26.0,30.03,WNW,292,0.0,4.0,63,0.00,,,0.00,,2013-03-01 01:42:00,
2013-02-28 20:52:00,37.0,26.0,30.03,NW,306,0.0,4.0,63,0.00,,,0.00,,2013-03-01 01:52:00,
2013-02-28 21:01:00,37.0,26.0,30.02,NW,306,0.0,3.0,63,0.00,,,0.00,,2013-03-01 02:01:00,
2013-02-28 21:11:00,37.0,26.0,30.02,NW,306,0.0,3.0,64,0.00,,,0.00,,2013-03-01 02:11:00,
2013-02-28 21:21:00,37.0,26.0,30.02,NW,306,0.0,3.0,64,0.00,,,0.00,,2013-03-01 02:21:00,
2013-02-28 21:32:00,37.0,26.0,30.03,NW,305,0.0,3.0,65,0.00,,,0.00,,2013-03-01 02:32:00,
2013-02-28 21:42:00,37.0,26.0,30.03,NW,305,0.0,3.0,65,0.00,,,0.00,,2013-03-01 02:42:00,
2013-02-28 21:52:00,37.0,26.0,30.03,NW,306,0.0,2.0,64,0.00,,,0.00,,2013-03-01 02:52:00,
2013-02-28 22:02:00,37.0,26.0,30.03,NW,305,0.0,1.0,64,0.00,,,0.00,,2013-03-01 03:02:00,
2013-02-28 22:11:00,37.0,26.0,30.03,NW,305,0.0,2.0,63,0.00,,,0.00,,2013-03-01 03:11:00,
2013-02-28 22:21:00,37.0,26.0,30.03,NW,305,0.0,2.0,63,0.00,,,0.00,,2013-03-01 03:21:00,
2013-02-28 22:32:00,37.0,26.0,30.03,NW,306,0.0,1.0,64,0.00,,,0.00,,2013-03-01 03:32:00,
2013-02-28 22:42:00,37.0,26.0,30.03,NW,306,0.0,1.0,64,0.00,,,0.00,,2013-03-01 03:42:00,
2013-02-28 22:52:00,37.0,26.0,30.02,NW,306,0.0,2.0,65,0.00,,,0.00,,2013-03-01 03:52:00,
2013-02-28 23:01:00,37.0,26.0,30.02,NW,306,0.0,2.0,65,0.00,,,0.00,,2013-03-01 04:01:00,
2013-02-28 23:11:00,37.0,26.0,30.02,NW,306,0.0,2.0,65,0.00,,,0.00,,2013-03-01 04:11:00,
2013-02-28 23:21:00,37.0,27.0,30.03,NW,306,0.0,1.0,66,0.00,,,0.00,,2013-03-01 04:21:00,
2013-02-28 23:32:00,37.0,26.0,30.03,NW,306,0.0,1.0,65,0.00,,,0.00,,2013-03-01 04:32:00,
2013-02-28 23:42:00,37.0,26.0,30.03,NW,306,0.0,1.0,65,0.00,,,0.00,,2013-03-01 04:42:00,
2013-02-28 23:52:00,37.0,27.0,30.03,NW,306,0.0,1.0,66,0.00,,,0.00,,2013-03-01 04:52:00,